sensor_id;sensor_type;location;lat;lon;timestamp;P1;durP1;ratioP1;P2;durP2;ratioP2
18881;SDS011;9573;50.948;11.600;2023-05-13T00:01:57;20.87;;;8.50;;
18881;SDS011;9573;50.948;11.600;2023-05-13T00:04:25;20.10;;;8.40;;
18881;SDS011;9573;50.948;11.600;2023-05-13T00:06:53;18.53;;;7.80;;
18881;SDS011;9573;50.948;11.600;2023-05-13T00:09:20;18.53;;;7.87;;
18881;SDS011;9573;50.948;11.600;2023-05-13T00:11:47;19.40;;;8.30;;
18881;SDS011;9573;50.948;11.600;2023-05-13T00:14:14;21.33;;;8.37;;
18881;SDS011;9573;50.948;11.600;2023-05-13T00:16:41;19.60;;;8.73;;
18881;SDS011;9573;50.948;11.600;2023-05-13T00:19:08;20.17;;;8.37;;
18881;SDS011;9573;50.948;11.600;2023-05-13T00:21:36;26.00;;;9.70;;
18881;SDS011;9573;50.948;11.600;2023-05-13T00:24:05;20.10;;;8.43;;
18881;SDS011;9573;50.948;11.600;2023-05-13T00:26:32;25.83;;;9.80;;
18881;SDS011;9573;50.948;11.600;2023-05-13T00:28:59;25.83;;;10.07;;
18881;SDS011;9573;50.948;11.600;2023-05-13T00:31:26;25.70;;;9.70;;
18881;SDS011;9573;50.948;11.600;2023-05-13T00:33:53;25.53;;;11.17;;
18881;SDS011;9573;50.948;11.600;2023-05-13T00:36:20;26.40;;;10.50;;
18881;SDS011;9573;50.948;11.600;2023-05-13T00:38:48;27.37;;;11.73;;
18881;SDS011;9573;50.948;11.600;2023-05-13T00:41:16;26.00;;;10.80;;
18881;SDS011;9573;50.948;11.600;2023-05-13T00:43:44;31.37;;;11.37;;
18881;SDS011;9573;50.948;11.600;2023-05-13T00:46:11;28.53;;;11.00;;
18881;SDS011;9573;50.948;11.600;2023-05-13T00:48:40;28.67;;;11.17;;
18881;SDS011;9573;50.948;11.600;2023-05-13T00:51:07;26.33;;;11.57;;
18881;SDS011;9573;50.948;11.600;2023-05-13T00:53:34;25.67;;;10.83;;
18881;SDS011;9573;50.948;11.600;2023-05-13T00:56:03;26.77;;;10.77;;
18881;SDS011;9573;50.948;11.600;2023-05-13T00:58:32;27.57;;;11.40;;
18881;SDS011;9573;50.948;11.600;2023-05-13T01:01:01;26.23;;;10.80;;
18881;SDS011;9573;50.948;11.600;2023-05-13T01:03:41;26.83;;;10.90;;
18881;SDS011;9573;50.948;11.600;2023-05-13T01:06:20;27.43;;;11.50;;
18881;SDS011;9573;50.948;11.600;2023-05-13T01:08:56;27.37;;;10.60;;
18881;SDS011;9573;50.948;11.600;2023-05-13T01:11:31;29.57;;;11.97;;
18881;SDS011;9573;50.948;11.600;2023-05-13T01:14:07;29.07;;;11.50;;
18881;SDS011;9573;50.948;11.600;2023-05-13T01:16:39;24.70;;;10.40;;
18881;SDS011;9573;50.948;11.600;2023-05-13T01:19:17;29.93;;;11.30;;
18881;SDS011;9573;50.948;11.600;2023-05-13T01:22:02;31.13;;;10.97;;
18881;SDS011;9573;50.948;11.600;2023-05-13T01:24:31;27.30;;;11.87;;
18881;SDS011;9573;50.948;11.600;2023-05-13T01:26:58;26.73;;;10.77;;
18881;SDS011;9573;50.948;11.600;2023-05-13T01:29:25;28.63;;;12.10;;
18881;SDS011;9573;50.948;11.600;2023-05-13T01:31:53;27.93;;;11.33;;
18881;SDS011;9573;50.948;11.600;2023-05-13T01:34:21;27.37;;;11.17;;
18881;SDS011;9573;50.948;11.600;2023-05-13T01:36:50;27.47;;;11.30;;
18881;SDS011;9573;50.948;11.600;2023-05-13T01:39:19;25.90;;;10.90;;
18881;SDS011;9573;50.948;11.600;2023-05-13T01:41:47;28.07;;;11.47;;
18881;SDS011;9573;50.948;11.600;2023-05-13T01:44:14;27.23;;;11.90;;
18881;SDS011;9573;50.948;11.600;2023-05-13T01:46:41;27.73;;;11.77;;
18881;SDS011;9573;50.948;11.600;2023-05-13T01:49:09;28.30;;;11.43;;
18881;SDS011;9573;50.948;11.600;2023-05-13T01:51:36;31.80;;;12.63;;
18881;SDS011;9573;50.948;11.600;2023-05-13T01:54:04;30.53;;;12.83;;
18881;SDS011;9573;50.948;11.600;2023-05-13T01:56:32;29.50;;;12.47;;
18881;SDS011;9573;50.948;11.600;2023-05-13T01:59:00;29.67;;;11.97;;
18881;SDS011;9573;50.948;11.600;2023-05-13T02:01:27;26.77;;;11.87;;
18881;SDS011;9573;50.948;11.600;2023-05-13T02:03:55;32.30;;;12.87;;
18881;SDS011;9573;50.948;11.600;2023-05-13T02:06:23;28.47;;;12.40;;
18881;SDS011;9573;50.948;11.600;2023-05-13T02:08:51;31.57;;;12.40;;
18881;SDS011;9573;50.948;11.600;2023-05-13T02:11:19;28.50;;;11.83;;
18881;SDS011;9573;50.948;11.600;2023-05-13T02:13:47;24.97;;;10.83;;
18881;SDS011;9573;50.948;11.600;2023-05-13T02:16:15;26.57;;;10.67;;
18881;SDS011;9573;50.948;11.600;2023-05-13T02:18:43;27.60;;;11.50;;
18881;SDS011;9573;50.948;11.600;2023-05-13T02:21:10;30.33;;;11.53;;
18881;SDS011;9573;50.948;11.600;2023-05-13T02:23:37;27.30;;;10.93;;
18881;SDS011;9573;50.948;11.600;2023-05-13T02:26:04;28.00;;;11.80;;
18881;SDS011;9573;50.948;11.600;2023-05-13T02:28:31;27.93;;;11.70;;
18881;SDS011;9573;50.948;11.600;2023-05-13T02:31:00;27.10;;;11.20;;
18881;SDS011;9573;50.948;11.600;2023-05-13T02:33:27;28.37;;;11.37;;
18881;SDS011;9573;50.948;11.600;2023-05-13T02:35:54;27.23;;;11.53;;
18881;SDS011;9573;50.948;11.600;2023-05-13T02:38:22;25.63;;;10.70;;
18881;SDS011;9573;50.948;11.600;2023-05-13T02:40:49;26.63;;;11.33;;
18881;SDS011;9573;50.948;11.600;2023-05-13T02:43:16;26.20;;;11.17;;
18881;SDS011;9573;50.948;11.600;2023-05-13T02:45:43;27.03;;;11.20;;
18881;SDS011;9573;50.948;11.600;2023-05-13T02:48:13;26.43;;;12.00;;
18881;SDS011;9573;50.948;11.600;2023-05-13T02:50:40;26.53;;;11.83;;
18881;SDS011;9573;50.948;11.600;2023-05-13T02:53:07;25.67;;;11.53;;
18881;SDS011;9573;50.948;11.600;2023-05-13T02:55:34;26.30;;;11.63;;
18881;SDS011;9573;50.948;11.600;2023-05-13T02:58:01;24.17;;;10.97;;
18881;SDS011;9573;50.948;11.600;2023-05-13T03:00:28;25.97;;;10.77;;
18881;SDS011;9573;50.948;11.600;2023-05-13T03:02:55;28.73;;;12.83;;
18881;SDS011;9573;50.948;11.600;2023-05-13T03:05:24;25.10;;;14.20;;
18881;SDS011;9573;50.948;11.600;2023-05-13T03:07:51;22.73;;;11.97;;
18881;SDS011;9573;50.948;11.600;2023-05-13T03:10:18;26.60;;;12.57;;
18881;SDS011;9573;50.948;11.600;2023-05-13T03:12:45;25.10;;;12.83;;
18881;SDS011;9573;50.948;11.600;2023-05-13T03:15:12;27.63;;;12.90;;
18881;SDS011;9573;50.948;11.600;2023-05-13T03:17:40;28.43;;;12.57;;
18881;SDS011;9573;50.948;11.600;2023-05-13T03:20:09;25.33;;;12.17;;
18881;SDS011;9573;50.948;11.600;2023-05-13T03:22:38;27.07;;;11.20;;
18881;SDS011;9573;50.948;11.600;2023-05-13T03:25:05;22.13;;;10.73;;
18881;SDS011;9573;50.948;11.600;2023-05-13T03:27:33;23.10;;;10.23;;
18881;SDS011;9573;50.948;11.600;2023-05-13T03:30:00;25.27;;;10.47;;
18881;SDS011;9573;50.948;11.600;2023-05-13T03:32:27;22.60;;;9.40;;
18881;SDS011;9573;50.948;11.600;2023-05-13T03:34:56;23.10;;;10.20;;
18881;SDS011;9573;50.948;11.600;2023-05-13T03:37:24;22.33;;;9.40;;
18881;SDS011;9573;50.948;11.600;2023-05-13T03:39:53;22.67;;;9.90;;
18881;SDS011;9573;50.948;11.600;2023-05-13T03:42:20;26.70;;;10.67;;
18881;SDS011;9573;50.948;11.600;2023-05-13T03:44:47;22.23;;;9.90;;
18881;SDS011;9573;50.948;11.600;2023-05-13T03:47:15;23.27;;;10.13;;
18881;SDS011;9573;50.948;11.600;2023-05-13T03:49:42;23.30;;;9.70;;
18881;SDS011;9573;50.948;11.600;2023-05-13T03:52:10;29.37;;;10.63;;
18881;SDS011;9573;50.948;11.600;2023-05-13T03:54:37;25.40;;;10.83;;
18881;SDS011;9573;50.948;11.600;2023-05-13T03:57:05;22.83;;;9.83;;
18881;SDS011;9573;50.948;11.600;2023-05-13T03:59:33;21.47;;;9.50;;
18881;SDS011;9573;50.948;11.600;2023-05-13T04:02:00;21.47;;;9.83;;
18881;SDS011;9573;50.948;11.600;2023-05-13T04:04:27;23.50;;;10.20;;
18881;SDS011;9573;50.948;11.600;2023-05-13T04:06:54;22.13;;;9.80;;
18881;SDS011;9573;50.948;11.600;2023-05-13T04:09:21;27.60;;;10.47;;
18881;SDS011;9573;50.948;11.600;2023-05-13T04:11:48;22.83;;;10.07;;
18881;SDS011;9573;50.948;11.600;2023-05-13T04:14:17;19.83;;;8.87;;
18881;SDS011;9573;50.948;11.600;2023-05-13T04:16:44;24.13;;;9.30;;
18881;SDS011;9573;50.948;11.600;2023-05-13T04:19:12;21.00;;;9.13;;
18881;SDS011;9573;50.948;11.600;2023-05-13T04:21:39;22.60;;;9.10;;
18881;SDS011;9573;50.948;11.600;2023-05-13T04:24:06;21.57;;;8.93;;
18881;SDS011;9573;50.948;11.600;2023-05-13T04:26:33;23.20;;;8.90;;
18881;SDS011;9573;50.948;11.600;2023-05-13T04:29:00;21.90;;;9.03;;
18881;SDS011;9573;50.948;11.600;2023-05-13T04:31:29;21.07;;;8.63;;
18881;SDS011;9573;50.948;11.600;2023-05-13T04:33:56;18.07;;;7.57;;
18881;SDS011;9573;50.948;11.600;2023-05-13T04:36:23;18.50;;;7.27;;
18881;SDS011;9573;50.948;11.600;2023-05-13T04:38:51;18.03;;;7.50;;
18881;SDS011;9573;50.948;11.600;2023-05-13T04:41:19;24.13;;;8.23;;
18881;SDS011;9573;50.948;11.600;2023-05-13T04:43:46;19.43;;;7.83;;
18881;SDS011;9573;50.948;11.600;2023-05-13T04:46:13;19.60;;;7.00;;
18881;SDS011;9573;50.948;11.600;2023-05-13T04:48:42;18.60;;;7.77;;
18881;SDS011;9573;50.948;11.600;2023-05-13T04:51:12;15.67;;;7.00;;
18881;SDS011;9573;50.948;11.600;2023-05-13T04:53:39;19.03;;;6.47;;
18881;SDS011;9573;50.948;11.600;2023-05-13T04:56:07;17.57;;;6.20;;
18881;SDS011;9573;50.948;11.600;2023-05-13T04:58:34;16.80;;;6.40;;
18881;SDS011;9573;50.948;11.600;2023-05-13T05:01:01;13.37;;;6.00;;
18881;SDS011;9573;50.948;11.600;2023-05-13T05:03:29;14.53;;;5.70;;
18881;SDS011;9573;50.948;11.600;2023-05-13T05:05:57;15.97;;;5.87;;
18881;SDS011;9573;50.948;11.600;2023-05-13T05:08:24;17.80;;;5.83;;
18881;SDS011;9573;50.948;11.600;2023-05-13T05:10:52;15.73;;;5.50;;
18881;SDS011;9573;50.948;11.600;2023-05-13T05:13:20;15.80;;;5.50;;
18881;SDS011;9573;50.948;11.600;2023-05-13T05:15:47;12.87;;;5.40;;
18881;SDS011;9573;50.948;11.600;2023-05-13T05:18:14;12.83;;;5.73;;
18881;SDS011;9573;50.948;11.600;2023-05-13T05:20:43;10.10;;;5.67;;
18881;SDS011;9573;50.948;11.600;2023-05-13T05:23:12;13.33;;;5.40;;
18881;SDS011;9573;50.948;11.600;2023-05-13T05:25:43;14.80;;;5.60;;
18881;SDS011;9573;50.948;11.600;2023-05-13T05:28:10;14.40;;;5.90;;
18881;SDS011;9573;50.948;11.600;2023-05-13T05:30:37;10.27;;;5.50;;
18881;SDS011;9573;50.948;11.600;2023-05-13T05:33:05;12.33;;;5.13;;
18881;SDS011;9573;50.948;11.600;2023-05-13T05:35:32;10.67;;;5.10;;
18881;SDS011;9573;50.948;11.600;2023-05-13T05:38:01;11.33;;;5.20;;
18881;SDS011;9573;50.948;11.600;2023-05-13T05:40:30;12.37;;;4.87;;
18881;SDS011;9573;50.948;11.600;2023-05-13T05:42:57;12.93;;;5.53;;
18881;SDS011;9573;50.948;11.600;2023-05-13T05:45:24;10.33;;;5.30;;
18881;SDS011;9573;50.948;11.600;2023-05-13T05:47:56;11.20;;;4.93;;
18881;SDS011;9573;50.948;11.600;2023-05-13T05:50:23;10.73;;;4.90;;
18881;SDS011;9573;50.948;11.600;2023-05-13T05:52:50;14.13;;;4.93;;
18881;SDS011;9573;50.948;11.600;2023-05-13T05:55:17;10.85;;;4.88;;
18881;SDS011;9573;50.948;11.600;2023-05-13T05:57:46;29.38;;;5.53;;
18881;SDS011;9573;50.948;11.600;2023-05-13T06:00:13;9.65;;;4.72;;
18881;SDS011;9573;50.948;11.600;2023-05-13T06:02:42;10.35;;;4.95;;
18881;SDS011;9573;50.948;11.600;2023-05-13T06:05:10;9.50;;;4.68;;
18881;SDS011;9573;50.948;11.600;2023-05-13T06:07:37;9.40;;;4.70;;
18881;SDS011;9573;50.948;11.600;2023-05-13T06:10:05;8.10;;;4.70;;
18881;SDS011;9573;50.948;11.600;2023-05-13T06:12:32;16.85;;;4.65;;
18881;SDS011;9573;50.948;11.600;2023-05-13T06:15:01;10.73;;;4.78;;
18881;SDS011;9573;50.948;11.600;2023-05-13T06:17:30;13.80;;;4.90;;
18881;SDS011;9573;50.948;11.600;2023-05-13T06:19:57;9.00;;;4.63;;
18881;SDS011;9573;50.948;11.600;2023-05-13T06:22:25;11.98;;;4.97;;
18881;SDS011;9573;50.948;11.600;2023-05-13T06:24:52;7.57;;;4.55;;
18881;SDS011;9573;50.948;11.600;2023-05-13T06:27:19;8.43;;;4.60;;
18881;SDS011;9573;50.948;11.600;2023-05-13T06:29:46;11.63;;;4.55;;
18881;SDS011;9573;50.948;11.600;2023-05-13T06:32:15;12.63;;;4.60;;
18881;SDS011;9573;50.948;11.600;2023-05-13T06:34:42;9.73;;;4.80;;
18881;SDS011;9573;50.948;11.600;2023-05-13T06:37:10;15.00;;;4.68;;
18881;SDS011;9573;50.948;11.600;2023-05-13T06:39:37;8.80;;;4.40;;
18881;SDS011;9573;50.948;11.600;2023-05-13T06:42:05;12.55;;;4.40;;
18881;SDS011;9573;50.948;11.600;2023-05-13T06:44:32;8.27;;;4.20;;
18881;SDS011;9573;50.948;11.600;2023-05-13T06:46:59;12.10;;;4.22;;
18881;SDS011;9573;50.948;11.600;2023-05-13T06:49:30;10.48;;;4.60;;
18881;SDS011;9573;50.948;11.600;2023-05-13T06:51:58;11.50;;;4.50;;
18881;SDS011;9573;50.948;11.600;2023-05-13T06:54:25;8.40;;;4.30;;
18881;SDS011;9573;50.948;11.600;2023-05-13T06:56:56;12.77;;;4.13;;
18881;SDS011;9573;50.948;11.600;2023-05-13T06:59:23;10.30;;;4.32;;
18881;SDS011;9573;50.948;11.600;2023-05-13T07:01:50;11.43;;;4.22;;
18881;SDS011;9573;50.948;11.600;2023-05-13T07:04:17;11.60;;;4.20;;
18881;SDS011;9573;50.948;11.600;2023-05-13T07:06:46;6.38;;;4.05;;
18881;SDS011;9573;50.948;11.600;2023-05-13T07:09:14;8.30;;;4.00;;
18881;SDS011;9573;50.948;11.600;2023-05-13T07:11:41;11.38;;;3.78;;
18881;SDS011;9573;50.948;11.600;2023-05-13T07:14:11;8.45;;;3.90;;
18881;SDS011;9573;50.948;11.600;2023-05-13T07:16:38;9.27;;;3.60;;
18881;SDS011;9573;50.948;11.600;2023-05-13T07:19:05;14.65;;;3.85;;
18881;SDS011;9573;50.948;11.600;2023-05-13T07:21:32;10.35;;;3.20;;
18881;SDS011;9573;50.948;11.600;2023-05-13T07:24:02;6.38;;;3.20;;
18881;SDS011;9573;50.948;11.600;2023-05-13T07:26:29;8.73;;;3.53;;
18881;SDS011;9573;50.948;11.600;2023-05-13T07:28:56;7.00;;;3.10;;
18881;SDS011;9573;50.948;11.600;2023-05-13T07:31:24;11.18;;;3.70;;
18881;SDS011;9573;50.948;11.600;2023-05-13T07:33:51;8.95;;;3.33;;
18881;SDS011;9573;50.948;11.600;2023-05-13T07:36:18;8.95;;;3.95;;
18881;SDS011;9573;50.948;11.600;2023-05-13T07:38:46;5.85;;;3.20;;
18881;SDS011;9573;50.948;11.600;2023-05-13T07:41:15;8.57;;;3.40;;
18881;SDS011;9573;50.948;11.600;2023-05-13T07:43:42;7.03;;;3.40;;
18881;SDS011;9573;50.948;11.600;2023-05-13T07:46:09;5.13;;;3.20;;
18881;SDS011;9573;50.948;11.600;2023-05-13T07:48:36;10.15;;;3.60;;
18881;SDS011;9573;50.948;11.600;2023-05-13T07:51:03;6.95;;;3.40;;
18881;SDS011;9573;50.948;11.600;2023-05-13T07:53:31;6.03;;;3.33;;
18881;SDS011;9573;50.948;11.600;2023-05-13T07:55:59;7.10;;;3.20;;
18881;SDS011;9573;50.948;11.600;2023-05-13T07:58:31;8.27;;;3.45;;
18881;SDS011;9573;50.948;11.600;2023-05-13T08:01:01;6.35;;;3.33;;
18881;SDS011;9573;50.948;11.600;2023-05-13T08:03:36;10.35;;;3.65;;
18881;SDS011;9573;50.948;11.600;2023-05-13T08:06:06;6.50;;;3.25;;
18881;SDS011;9573;50.948;11.600;2023-05-13T08:08:33;4.03;;;2.70;;
18881;SDS011;9573;50.948;11.600;2023-05-13T08:11:01;4.45;;;2.85;;
18881;SDS011;9573;50.948;11.600;2023-05-13T08:13:28;7.65;;;2.83;;
18881;SDS011;9573;50.948;11.600;2023-05-13T08:16:00;5.97;;;2.90;;
18881;SDS011;9573;50.948;11.600;2023-05-13T08:18:27;5.32;;;2.95;;
18881;SDS011;9573;50.948;11.600;2023-05-13T08:20:54;7.18;;;2.95;;
18881;SDS011;9573;50.948;11.600;2023-05-13T08:23:21;7.00;;;3.00;;
18881;SDS011;9573;50.948;11.600;2023-05-13T08:25:52;8.00;;;2.90;;
18881;SDS011;9573;50.948;11.600;2023-05-13T08:28:47;7.90;;;2.80;;
18881;SDS011;9573;50.948;11.600;2023-05-13T08:31:16;6.15;;;3.20;;
18881;SDS011;9573;50.948;11.600;2023-05-13T08:33:43;8.13;;;2.95;;
18881;SDS011;9573;50.948;11.600;2023-05-13T08:36:13;5.38;;;2.90;;
18881;SDS011;9573;50.948;11.600;2023-05-13T08:38:40;7.88;;;2.80;;
18881;SDS011;9573;50.948;11.600;2023-05-13T08:41:10;9.20;;;3.20;;
18881;SDS011;9573;50.948;11.600;2023-05-13T08:43:38;8.05;;;3.10;;
18881;SDS011;9573;50.948;11.600;2023-05-13T08:46:08;9.20;;;3.30;;
18881;SDS011;9573;50.948;11.600;2023-05-13T08:48:38;7.35;;;3.20;;
18881;SDS011;9573;50.948;11.600;2023-05-13T08:51:07;7.57;;;3.55;;
18881;SDS011;9573;50.948;11.600;2023-05-13T08:53:36;7.80;;;3.50;;
18881;SDS011;9573;50.948;11.600;2023-05-13T08:56:07;8.23;;;3.50;;
18881;SDS011;9573;50.948;11.600;2023-05-13T08:58:35;8.23;;;3.47;;
18881;SDS011;9573;50.948;11.600;2023-05-13T09:01:04;6.45;;;3.65;;
18881;SDS011;9573;50.948;11.600;2023-05-13T09:03:34;12.65;;;4.10;;
18881;SDS011;9573;50.948;11.600;2023-05-13T09:06:12;7.50;;;3.55;;
18881;SDS011;9573;50.948;11.600;2023-05-13T09:08:39;11.20;;;3.40;;
18881;SDS011;9573;50.948;11.600;2023-05-13T09:11:07;7.82;;;3.20;;
18881;SDS011;9573;50.948;11.600;2023-05-13T09:13:34;9.48;;;4.03;;
18881;SDS011;9573;50.948;11.600;2023-05-13T09:16:01;7.95;;;3.78;;
18881;SDS011;9573;50.948;11.600;2023-05-13T09:21:30;9.60;;;3.70;;
18881;SDS011;9573;50.948;11.600;2023-05-13T09:24:06;7.18;;;3.55;;
18881;SDS011;9573;50.948;11.600;2023-05-13T09:26:36;6.25;;;3.10;;
18881;SDS011;9573;50.948;11.600;2023-05-13T09:31:50;8.95;;;3.47;;
18881;SDS011;9573;50.948;11.600;2023-05-13T09:34:27;8.13;;;3.35;;
18881;SDS011;9573;50.948;11.600;2023-05-13T09:36:56;10.82;;;3.40;;
18881;SDS011;9573;50.948;11.600;2023-05-13T09:39:26;8.73;;;3.28;;
18881;SDS011;9573;50.948;11.600;2023-05-13T09:41:54;5.05;;;3.08;;
18881;SDS011;9573;50.948;11.600;2023-05-13T09:44:21;7.05;;;3.30;;
18881;SDS011;9573;50.948;11.600;2023-05-13T09:46:49;8.13;;;3.60;;
18881;SDS011;9573;50.948;11.600;2023-05-13T09:49:17;12.27;;;4.10;;
18881;SDS011;9573;50.948;11.600;2023-05-13T09:51:49;6.78;;;3.72;;
18881;SDS011;9573;50.948;11.600;2023-05-13T09:54:16;6.53;;;3.40;;
18881;SDS011;9573;50.948;11.600;2023-05-13T09:56:44;10.35;;;3.80;;
18881;SDS011;9573;50.948;11.600;2023-05-13T09:59:11;11.57;;;3.40;;
18881;SDS011;9573;50.948;11.600;2023-05-13T10:01:38;12.57;;;3.63;;
18881;SDS011;9573;50.948;11.600;2023-05-13T10:04:06;11.80;;;3.80;;
18881;SDS011;9573;50.948;11.600;2023-05-13T10:06:34;6.78;;;3.38;;
18881;SDS011;9573;50.948;11.600;2023-05-13T10:09:03;9.05;;;3.85;;
18881;SDS011;9573;50.948;11.600;2023-05-13T10:11:34;9.63;;;3.60;;
18881;SDS011;9573;50.948;11.600;2023-05-13T10:14:04;9.88;;;3.88;;
18881;SDS011;9573;50.948;11.600;2023-05-13T10:16:32;7.85;;;3.60;;
18881;SDS011;9573;50.948;11.600;2023-05-13T10:19:02;10.90;;;3.88;;
18881;SDS011;9573;50.948;11.600;2023-05-13T10:21:31;9.23;;;4.18;;
18881;SDS011;9573;50.948;11.600;2023-05-13T10:24:00;9.27;;;3.75;;
18881;SDS011;9573;50.948;11.600;2023-05-13T10:26:30;7.13;;;3.85;;
18881;SDS011;9573;50.948;11.600;2023-05-13T10:28:58;13.80;;;4.30;;
18881;SDS011;9573;50.948;11.600;2023-05-13T10:31:28;8.73;;;3.95;;
18881;SDS011;9573;50.948;11.600;2023-05-13T10:33:56;11.52;;;3.97;;
18881;SDS011;9573;50.948;11.600;2023-05-13T10:36:32;8.70;;;3.75;;
18881;SDS011;9573;50.948;11.600;2023-05-13T10:39:21;6.38;;;3.53;;
18881;SDS011;9573;50.948;11.600;2023-05-13T10:45:10;7.97;;;3.80;;
18881;SDS011;9573;50.948;11.600;2023-05-13T10:47:37;10.85;;;4.03;;
18881;SDS011;9573;50.948;11.600;2023-05-13T10:50:05;6.30;;;3.60;;
18881;SDS011;9573;50.948;11.600;2023-05-13T10:52:48;9.43;;;3.88;;
18881;SDS011;9573;50.948;11.600;2023-05-13T10:55:18;7.30;;;3.88;;
18881;SDS011;9573;50.948;11.600;2023-05-13T11:00:36;6.55;;;3.70;;
18881;SDS011;9573;50.948;11.600;2023-05-13T11:03:09;10.43;;;4.00;;
18881;SDS011;9573;50.948;11.600;2023-05-13T11:05:39;8.05;;;4.13;;
18881;SDS011;9573;50.948;11.600;2023-05-13T11:08:09;11.25;;;3.50;;
18881;SDS011;9573;50.948;11.600;2023-05-13T11:10:39;11.30;;;3.95;;
18881;SDS011;9573;50.948;11.600;2023-05-13T11:13:07;7.80;;;3.90;;
18881;SDS011;9573;50.948;11.600;2023-05-13T11:15:47;8.30;;;3.55;;
18881;SDS011;9573;50.948;11.600;2023-05-13T11:18:16;8.65;;;3.67;;
18881;SDS011;9573;50.948;11.600;2023-05-13T11:20:45;9.15;;;3.60;;
18881;SDS011;9573;50.948;11.600;2023-05-13T11:23:18;8.77;;;3.72;;
18881;SDS011;9573;50.948;11.600;2023-05-13T11:25:47;10.00;;;3.85;;
18881;SDS011;9573;50.948;11.600;2023-05-13T11:28:51;8.32;;;3.67;;
18881;SDS011;9573;50.948;11.600;2023-05-13T11:31:25;11.18;;;4.00;;
18881;SDS011;9573;50.948;11.600;2023-05-13T11:34:04;9.73;;;3.90;;
18881;SDS011;9573;50.948;11.600;2023-05-13T11:36:35;10.23;;;4.10;;
18881;SDS011;9573;50.948;11.600;2023-05-13T11:39:04;13.20;;;3.73;;
18881;SDS011;9573;50.948;11.600;2023-05-13T11:41:38;9.10;;;3.87;;
18881;SDS011;9573;50.948;11.600;2023-05-13T11:44:08;8.60;;;4.17;;
18881;SDS011;9573;50.948;11.600;2023-05-13T11:46:38;8.33;;;3.70;;
18881;SDS011;9573;50.948;11.600;2023-05-13T11:49:37;9.03;;;3.80;;
18881;SDS011;9573;50.948;11.600;2023-05-13T11:52:07;11.90;;;3.77;;
18881;SDS011;9573;50.948;11.600;2023-05-13T11:54:45;7.97;;;3.60;;
18881;SDS011;9573;50.948;11.600;2023-05-13T11:57:18;7.47;;;3.50;;
18881;SDS011;9573;50.948;11.600;2023-05-13T11:59:51;10.27;;;4.00;;
18881;SDS011;9573;50.948;11.600;2023-05-13T12:02:21;9.10;;;3.90;;
18881;SDS011;9573;50.948;11.600;2023-05-13T12:04:49;8.77;;;3.70;;
18881;SDS011;9573;50.948;11.600;2023-05-13T12:07:20;5.20;;;3.47;;
18881;SDS011;9573;50.948;11.600;2023-05-13T12:09:49;10.87;;;3.93;;
18881;SDS011;9573;50.948;11.600;2023-05-13T12:12:19;7.30;;;3.50;;
18881;SDS011;9573;50.948;11.600;2023-05-13T12:14:46;6.00;;;3.80;;
18881;SDS011;9573;50.948;11.600;2023-05-13T12:17:15;11.07;;;3.20;;
18881;SDS011;9573;50.948;11.600;2023-05-13T12:22:49;8.07;;;3.90;;
18881;SDS011;9573;50.948;11.600;2023-05-13T12:25:40;8.37;;;3.30;;
18881;SDS011;9573;50.948;11.600;2023-05-13T12:28:13;9.17;;;3.83;;
18881;SDS011;9573;50.948;11.600;2023-05-13T12:30:42;11.80;;;3.83;;
18881;SDS011;9573;50.948;11.600;2023-05-13T12:33:15;7.00;;;3.63;;
18881;SDS011;9573;50.948;11.600;2023-05-13T12:35:45;9.60;;;3.90;;
18881;SDS011;9573;50.948;11.600;2023-05-13T12:38:14;10.50;;;3.77;;
18881;SDS011;9573;50.948;11.600;2023-05-13T12:40:43;9.03;;;4.03;;
18881;SDS011;9573;50.948;11.600;2023-05-13T12:43:13;10.57;;;3.97;;
18881;SDS011;9573;50.948;11.600;2023-05-13T12:45:42;11.93;;;4.00;;
18881;SDS011;9573;50.948;11.600;2023-05-13T12:48:11;11.37;;;4.20;;
18881;SDS011;9573;50.948;11.600;2023-05-13T12:50:39;12.93;;;4.20;;
18881;SDS011;9573;50.948;11.600;2023-05-13T12:53:06;9.50;;;4.30;;
18881;SDS011;9573;50.948;11.600;2023-05-13T12:55:35;8.27;;;3.80;;
18881;SDS011;9573;50.948;11.600;2023-05-13T12:58:08;7.20;;;3.77;;
18881;SDS011;9573;50.948;11.600;2023-05-13T13:00:37;11.20;;;4.00;;
18881;SDS011;9573;50.948;11.600;2023-05-13T13:03:04;8.57;;;3.77;;
18881;SDS011;9573;50.948;11.600;2023-05-13T13:05:31;9.27;;;4.03;;
18881;SDS011;9573;50.948;11.600;2023-05-13T13:07:58;7.03;;;3.50;;
18881;SDS011;9573;50.948;11.600;2023-05-13T13:10:29;10.40;;;3.90;;
18881;SDS011;9573;50.948;11.600;2023-05-13T13:12:56;8.33;;;3.60;;
18881;SDS011;9573;50.948;11.600;2023-05-13T13:15:23;7.03;;;3.83;;
18881;SDS011;9573;50.948;11.600;2023-05-13T13:17:51;8.33;;;4.00;;
18881;SDS011;9573;50.948;11.600;2023-05-13T13:20:19;8.67;;;3.97;;
18881;SDS011;9573;50.948;11.600;2023-05-13T13:22:46;9.03;;;3.67;;
18881;SDS011;9573;50.948;11.600;2023-05-13T13:25:13;10.10;;;3.90;;
18881;SDS011;9573;50.948;11.600;2023-05-13T13:27:41;8.20;;;3.90;;
18881;SDS011;9573;50.948;11.600;2023-05-13T13:30:08;9.67;;;3.40;;
18881;SDS011;9573;50.948;11.600;2023-05-13T13:32:37;8.83;;;3.73;;
18881;SDS011;9573;50.948;11.600;2023-05-13T13:35:06;8.97;;;3.47;;
18881;SDS011;9573;50.948;11.600;2023-05-13T13:37:34;7.87;;;3.57;;
18881;SDS011;9573;50.948;11.600;2023-05-13T13:40:01;10.07;;;3.43;;
18881;SDS011;9573;50.948;11.600;2023-05-13T13:42:29;9.53;;;3.70;;
18881;SDS011;9573;50.948;11.600;2023-05-13T13:44:56;8.83;;;3.80;;
18881;SDS011;9573;50.948;11.600;2023-05-13T13:47:23;11.47;;;3.60;;
18881;SDS011;9573;50.948;11.600;2023-05-13T13:49:50;9.80;;;3.40;;
18881;SDS011;9573;50.948;11.600;2023-05-13T13:52:19;11.30;;;4.30;;
18881;SDS011;9573;50.948;11.600;2023-05-13T13:54:48;10.20;;;3.50;;
18881;SDS011;9573;50.948;11.600;2023-05-13T13:57:15;10.37;;;3.73;;
18881;SDS011;9573;50.948;11.600;2023-05-13T13:59:42;10.57;;;3.30;;
18881;SDS011;9573;50.948;11.600;2023-05-13T14:02:09;8.10;;;3.50;;
18881;SDS011;9573;50.948;11.600;2023-05-13T14:04:36;7.30;;;3.40;;
18881;SDS011;9573;50.948;11.600;2023-05-13T14:07:04;8.03;;;3.37;;
18881;SDS011;9573;50.948;11.600;2023-05-13T14:09:32;10.27;;;3.43;;
18881;SDS011;9573;50.948;11.600;2023-05-13T14:12:00;10.53;;;3.40;;
18881;SDS011;9573;50.948;11.600;2023-05-13T14:14:27;9.93;;;3.40;;
18881;SDS011;9573;50.948;11.600;2023-05-13T14:16:54;6.13;;;3.20;;
18881;SDS011;9573;50.948;11.600;2023-05-13T14:19:21;7.40;;;3.10;;
18881;SDS011;9573;50.948;11.600;2023-05-13T14:21:48;5.57;;;3.27;;
18881;SDS011;9573;50.948;11.600;2023-05-13T14:24:15;9.17;;;3.40;;
18881;SDS011;9573;50.948;11.600;2023-05-13T14:26:43;5.40;;;3.40;;
18881;SDS011;9573;50.948;11.600;2023-05-13T14:29:11;7.23;;;3.23;;
18881;SDS011;9573;50.948;11.600;2023-05-13T14:31:38;4.77;;;3.10;;
18881;SDS011;9573;50.948;11.600;2023-05-13T14:34:05;7.17;;;3.90;;
18881;SDS011;9573;50.948;11.600;2023-05-13T14:36:32;5.47;;;3.50;;
18881;SDS011;9573;50.948;11.600;2023-05-13T14:38:59;7.03;;;3.60;;
18881;SDS011;9573;50.948;11.600;2023-05-13T14:41:26;10.93;;;3.77;;
18881;SDS011;9573;50.948;11.600;2023-05-13T14:43:55;9.40;;;3.07;;
18881;SDS011;9573;50.948;11.600;2023-05-13T14:46:23;8.40;;;3.27;;
18881;SDS011;9573;50.948;11.600;2023-05-13T14:48:50;9.23;;;3.83;;
18881;SDS011;9573;50.948;11.600;2023-05-13T14:51:17;7.20;;;3.33;;
18881;SDS011;9573;50.948;11.600;2023-05-13T14:53:45;8.53;;;3.47;;
18881;SDS011;9573;50.948;11.600;2023-05-13T14:56:12;6.33;;;3.87;;
18881;SDS011;9573;50.948;11.600;2023-05-13T14:58:39;10.03;;;3.70;;
18881;SDS011;9573;50.948;11.600;2023-05-13T15:01:08;11.13;;;3.60;;